Kenner, LA (70064)

1:14 AM CDT on May 27, 2015 (GMT -0500)
Chateau Lakefront | | Change Station
CLOSE
Current Station
Personal Weather Station
Location: Kenner, LA
Elevation: 3 ft
Nearby Weather Stations

Elev 3 ft 30.04 °N, 90.26 °W | Updated 36 minutes ago

Partly Cloudy
Partly Cloudy
75.2 °F
Feels Like 74 °F
N
0.0
Wind Variable Wind from West

Today
High -- | Low -- °F
--% Chance of Precip.
Yesterday
High -- | Low -- °F
Precip. -- in
6:01 AM 7:54 PM
Waxing Gibbous, 64% visible
Pressure 30.09 in
Visibility 10.0 miles
Clouds Few 1500 ft
Heat Index 74 °F
Dew Point 74 °F
Humidity 95%
Rainfall 0.00 in
Snow Depth Not available.
UV 0 out of 12
Pollen 3.60 out of 12
Air Quality Not available.
Flu Activity Sporadic
METAR KMSY 270553Z 12004KT 10SM FEW015 25/22 A3007 RMK AO2 SLP187 T02500222 10283 20250 403000189 58010 $

More Conditions Fewer Conditions

Pressure 30.09 in
Visibility 10.0 miles
Clouds Few 1500 ft
Heat Index 74 °F
Dew Point 74 °F
Humidity 95%
Rainfall 0.00 in
Snow Depth Not available.
UV 0 out of 12
Pollen 3.60 out of 12
Air Quality Not available.
Flu Activity Sporadic
METAR KMSY 270553Z 12004KT 10SM FEW015 25/22 A3007 RMK AO2 SLP187 T02500222 10283 20250 403000189 58010 $

More Conditions Fewer Conditions

10-Day Weather Forecast

Almanac

Astronomy

May. 27, 2015 Rise Set
Actual Time
Civil Twilight
Nautical Twilight
Astronomical Twilight
Moon
Length of Visible Light
Length of Day
Tomorrow will be .
, % of the Moon is Illuminated

Today's Extremes

State Highs State Lows

Community

WunderPhotos

Upload Photos

1,824,617 photos uploaded!

WunderBlogs® & News

Nearby

Air Quality

  Air Quality AQ Index Pollutant
Not available.

Snow Depth

Station Depth Elevation

Earthquake Activity

City Distance Mag. Time & Date
Minimum magnitude displayed is 2.5.

Coastal Water Temperatures

Place Temperature

Stations

Nearby Weather Stations

Station Location Temp. Windchill Dew Point Humidity Wind Precip. Elev Updated Type